Time;durP1;ratioP1;P1;durP2;ratioP2;P2;SDS_P1;SDS_P2;PMS_P1;PMS_P2;Temp;Humidity;BMP_temperature;BMP_pressure;BME280_temperature;BME280_humidity;BME280_pressure;Samples;Min_cycle;Max_cycle;Signal;HPM_P1;HPM_P2
2021/11/29 00:00:43;;;;;;;13.90;8.93;;;1.30;99.90;;;;;;4995506;28;20030;-85
2021/11/29 00:03:12;;;;;;;15.70;9.63;;;1.30;99.90;;;;;;4987769;28;20550;-87
2021/11/29 00:05:38;;;;;;;12.48;8.82;;;1.30;99.90;;;;;;4981341;28;20026;-86
2021/11/29 00:08:05;;;;;;;12.75;9.13;;;1.40;99.90;;;;;;4983092;28;20488;-86
2021/11/29 00:10:32;;;;;;;16.85;10.05;;;1.40;99.90;;;;;;4980232;28;20034;-87
2021/11/29 00:12:58;;;;;;;14.25;9.82;;;1.40;99.90;;;;;;4981907;28;20086;-87
2021/11/29 00:15:24;;;;;;;13.95;9.93;;;1.40;99.90;;;;;;4980111;28;20054;-87
2021/11/29 00:17:52;;;;;;;13.95;9.40;;;1.40;99.90;;;;;;4978922;28;20042;-87
2021/11/29 00:20:19;;;;;;;16.60;9.75;;;1.50;99.90;;;;;;4980731;28;20114;-87
2021/11/29 00:22:45;;;;;;;16.85;10.25;;;1.50;99.90;;;;;;4979944;28;20027;-86
2021/11/29 00:25:11;;;;;;;18.15;10.35;;;1.50;99.90;;;;;;4980899;28;20030;-86
2021/11/29 00:27:38;;;;;;;15.20;9.73;;;1.50;99.90;;;;;;4980622;28;20023;-86
2021/11/29 00:30:07;;;;;;;16.85;10.57;;;1.40;99.90;;;;;;4984195;28;20097;-86
2021/11/29 00:32:33;;;;;;;18.60;10.18;;;1.40;99.90;;;;;;4985371;28;20023;-86
2021/11/29 00:34:59;;;;;;;17.13;9.93;;;1.40;99.90;;;;;;4993867;28;20027;-86
2021/11/29 00:37:24;;;;;;;13.48;9.38;;;1.40;99.90;;;;;;4988452;28;20130;-85
2021/11/29 00:39:51;;;;;;;14.25;9.70;;;1.40;99.90;;;;;;4992306;28;20086;-85
2021/11/29 00:42:17;;;;;;;15.05;9.65;;;1.40;99.90;;;;;;4991000;28;20063;-86
2021/11/29 00:44:43;;;;;;;14.40;9.57;;;1.40;99.90;;;;;;4979082;28;20019;-86
2021/11/29 00:47:09;;;;;;;15.68;9.90;;;1.40;99.90;;;;;;4979183;28;20022;-86
2021/11/29 00:49:35;;;;;;;18.45;10.20;;;1.50;99.90;;;;;;4988604;28;20026;-87
2021/11/29 00:52:01;;;;;;;14.38;9.95;;;1.50;99.90;;;;;;4982451;28;20046;-86
2021/11/29 00:54:26;;;;;;;14.65;10.05;;;1.50;99.90;;;;;;4999808;28;20019;-86
2021/11/29 00:56:52;;;;;;;14.52;10.50;;;1.60;99.90;;;;;;4969002;28;20030;-86
2021/11/29 00:59:18;;;;;;;15.38;10.05;;;1.60;99.90;;;;;;4995276;28;20027;-86
2021/11/29 01:01:44;;;;;;;13.57;9.35;;;1.60;99.90;;;;;;4994981;28;20035;-86
2021/11/29 01:04:11;;;;;;;16.35;9.98;;;1.60;99.90;;;;;;4980340;28;20041;-86
2021/11/29 01:06:37;;;;;;;16.08;10.27;;;1.60;99.90;;;;;;4985673;28;20023;-87
2021/11/29 01:09:04;;;;;;;16.08;10.35;;;1.50;99.90;;;;;;4979474;28;20097;-86
2021/11/29 01:11:30;;;;;;;15.70;9.27;;;1.50;99.90;;;;;;4981606;28;20050;-86
2021/11/29 01:13:56;;;;;;;14.27;9.43;;;1.50;99.90;;;;;;4990557;28;20015;-85
2021/11/29 01:16:22;;;;;;;14.70;9.57;;;1.40;99.90;;;;;;4988812;28;20053;-85
2021/11/29 01:18:48;;;;;;;15.07;10.02;;;1.40;99.90;;;;;;4980931;28;20073;-86
2021/11/29 01:21:14;;;;;;;16.80;10.40;;;1.40;99.90;;;;;;4981537;28;20026;-87
2021/11/29 01:23:39;;;;;;;19.05;10.48;;;1.40;99.90;;;;;;4982787;28;20022;-86
2021/11/29 01:26:05;;;;;;;15.68;9.90;;;1.40;99.90;;;;;;4977765;28;20027;-86
2021/11/29 01:28:32;;;;;;;15.98;9.77;;;1.30;99.90;;;;;;4983943;28;20019;-86
2021/11/29 01:30:58;;;;;;;13.25;9.32;;;1.30;99.90;;;;;;4985539;28;20027;-86
2021/11/29 01:33:25;;;;;;;15.80;9.50;;;1.20;99.90;;;;;;4976668;28;20400;-86
2021/11/29 01:35:51;;;;;;;14.00;9.68;;;1.20;99.90;;;;;;4977657;28;20039;-86
2021/11/29 01:38:17;;;;;;;14.68;9.40;;;1.20;99.90;;;;;;4977758;28;20035;-86
2021/11/29 01:40:43;;;;;;;15.30;10.35;;;1.20;99.90;;;;;;4976391;28;20033;-87
2021/11/29 01:43:13;;;;;;;14.73;9.55;;;1.10;99.90;;;;;;4977705;28;20202;-86
2021/11/29 01:45:42;;;;;;;16.00;9.55;;;1.10;99.90;;;;;;4978258;28;20039;-87
2021/11/29 01:48:09;;;;;;;14.82;10.65;;;1.10;99.90;;;;;;4977766;28;20384;-87
2021/11/29 01:50:36;;;;;;;15.20;10.20;;;1.10;99.90;;;;;;4977641;28;20391;-87
2021/11/29 01:53:02;;;;;;;15.43;10.15;;;1.00;99.90;;;;;;4976617;28;20023;-86
2021/11/29 01:55:28;;;;;;;14.93;10.35;;;1.10;99.90;;;;;;4978642;28;20057;-86
2021/11/29 01:57:54;;;;;;;15.65;10.45;;;1.00;99.90;;;;;;4993532;28;20034;-87
2021/11/29 02:00:24;;;;;;;16.98;10.00;;;1.10;99.90;;;;;;4991477;28;20061;-87
2021/11/29 02:02:52;;;;;;;13.20;8.77;;;1.10;99.90;;;;;;4979847;28;20303;-87
2021/11/29 02:05:19;;;;;;;13.57;8.65;;;1.10;99.90;;;;;;4970579;28;20106;-87
2021/11/29 02:07:45;;;;;;;14.70;10.15;;;1.10;99.90;;;;;;4992938;28;20373;-86
2021/11/29 02:10:11;;;;;;;13.95;9.00;;;1.20;99.90;;;;;;4991333;28;20056;-86
2021/11/29 02:12:37;;;;;;;13.60;8.80;;;1.30;99.90;;;;;;4979540;28;20027;-86
2021/11/29 02:15:04;;;;;;;13.20;8.70;;;1.20;99.90;;;;;;4978008;28;20030;-87
2021/11/29 02:17:31;;;;;;;16.98;9.65;;;1.30;99.90;;;;;;4978364;28;20027;-86
2021/11/29 02:19:59;;;;;;;15.80;9.10;;;1.30;99.90;;;;;;4976872;28;20090;-86
2021/11/29 02:22:25;;;;;;;15.95;9.45;;;1.30;99.90;;;;;;4976543;28;20030;-86
2021/11/29 02:24:51;;;;;;;14.95;8.93;;;1.30;99.90;;;;;;4988370;28;20031;-86
2021/11/29 02:27:17;;;;;;;14.57;9.82;;;1.30;99.90;;;;;;4998080;28;20070;-86
2021/11/29 02:29:42;;;;;;;13.07;8.88;;;1.20;99.90;;;;;;4984105;28;20033;-86
2021/11/29 02:32:08;;;;;;;15.27;9.82;;;1.10;99.90;;;;;;4978345;28;20074;-87
2021/11/29 02:34:35;;;;;;;16.02;9.40;;;1.10;99.90;;;;;;4977164;28;20432;-86
2021/11/29 02:37:04;;;;;;;15.43;10.30;;;1.00;99.90;;;;;;4975770;28;20406;-86
2021/11/29 02:39:30;;;;;;;17.13;10.80;;;1.00;99.90;;;;;;4977122;28;20106;-86
2021/11/29 02:41:59;;;;;;;17.13;10.48;;;1.00;99.90;;;;;;4977157;28;20042;-86
2021/11/29 02:44:25;;;;;;;18.17;10.45;;;1.00;99.90;;;;;;4977260;28;20100;-86
2021/11/29 02:46:52;;;;;;;17.48;9.85;;;1.00;99.90;;;;;;4976671;28;20395;-86
2021/11/29 02:49:17;;;;;;;17.35;10.65;;;0.90;99.90;;;;;;4977260;28;20041;-86
2021/11/29 02:51:49;;;;;;;17.00;11.02;;;0.90;99.90;;;;;;4977333;28;20078;-86
2021/11/29 02:54:24;;;;;;;15.75;10.88;;;0.90;99.90;;;;;;4992526;28;20023;-86
2021/11/29 02:56:53;;;;;;;18.58;10.40;;;1.00;99.90;;;;;;4993126;28;20027;-86
2021/11/29 02:59:22;;;;;;;17.45;10.88;;;1.00;99.90;;;;;;4980585;28;20031;-87
2021/11/29 03:01:51;;;;;;;18.90;10.43;;;1.00;99.90;;;;;;4981181;28;20050;-86
2021/11/29 03:04:21;;;;;;;17.27;11.90;;;1.10;99.90;;;;;;4987277;28;20031;-86
2021/11/29 03:06:47;;;;;;;21.13;11.10;;;1.10;99.90;;;;;;4967546;28;20041;-86
2021/11/29 03:09:14;;;;;;;21.25;11.73;;;1.20;99.90;;;;;;5024524;23;20140;-82
2021/11/29 03:11:39;;;;;;;17.90;11.10;;;1.20;99.90;;;;;;5038609;28;20037;-82
2021/11/29 03:14:06;;;;;;;16.95;11.45;;;1.20;99.90;;;;;;5028708;28;20029;-82
2021/11/29 03:16:32;;;;;;;19.95;11.98;;;1.20;99.90;;;;;;5028789;28;20037;-82
2021/11/29 03:18:58;;;;;;;19.45;11.95;;;1.20;99.90;;;;;;5047737;28;20037;-80
2021/11/29 03:21:25;;;;;;;17.35;11.15;;;1.20;99.90;;;;;;5034180;28;20460;-80
2021/11/29 03:23:54;;;;;;;18.05;11.45;;;1.10;99.90;;;;;;5066558;28;20036;-82
2021/11/29 03:26:21;;;;;;;20.08;12.43;;;1.10;99.90;;;;;;5066293;28;20024;-81
2021/11/29 03:28:52;;;;;;;18.67;12.15;;;1.10;99.90;;;;;;5030534;28;20481;-81
2021/11/29 03:31:19;;;;;;;18.23;11.88;;;1.10;99.90;;;;;;5028097;28;20063;-82
2021/11/29 03:33:46;;;;;;;22.95;12.60;;;1.20;99.90;;;;;;5046203;28;20025;-81
2021/11/29 03:36:13;;;;;;;20.90;13.07;;;1.10;99.90;;;;;;5046455;28;20028;-81
2021/11/29 03:38:39;;;;;;;19.40;11.50;;;1.20;99.90;;;;;;5046636;28;20034;-81
2021/11/29 03:41:06;;;;;;;17.35;12.30;;;1.20;99.90;;;;;;5045399;28;20025;-81
2021/11/29 03:43:32;;;;;;;20.30;13.10;;;1.10;99.90;;;;;;5047822;28;20043;-81
2021/11/29 03:45:58;;;;;;;22.70;15.02;;;1.00;99.90;;;;;;5044322;28;20084;-82
2021/11/29 03:48:24;;;;;;;22.38;13.77;;;1.00;99.90;;;;;;5027961;28;20445;-82
2021/11/29 03:50:52;;;;;;;20.05;12.80;;;1.00;99.90;;;;;;5026739;28;20025;-81
2021/11/29 03:53:18;;;;;;;17.95;12.90;;;1.10;99.90;;;;;;5049189;28;20358;-81
2021/11/29 03:55:48;;;;;;;18.45;11.20;;;1.00;99.90;;;;;;5064913;28;20048;-81
2021/11/29 03:58:19;;;;;;;19.88;13.40;;;1.00;99.90;;;;;;5047003;28;20028;-81
2021/11/29 04:00:46;;;;;;;21.40;12.18;;;1.00;99.90;;;;;;5038501;28;20434;-81
2021/11/29 04:03:12;;;;;;;21.52;12.50;;;1.00;99.90;;;;;;5026995;28;20029;-81
2021/11/29 04:05:38;;;;;;;19.75;12.48;;;0.90;99.90;;;;;;5045598;28;20033;-81
2021/11/29 04:08:04;;;;;;;22.67;13.63;;;0.90;99.90;;;;;;5043640;28;20052;-81
2021/11/29 04:10:30;;;;;;;21.25;12.60;;;0.90;99.90;;;;;;5044775;28;20474;-81
2021/11/29 04:12:56;;;;;;;18.90;12.65;;;0.90;99.90;;;;;;5027474;28;20025;-80
2021/11/29 04:15:22;;;;;;;20.08;14.02;;;0.90;99.90;;;;;;5026106;28;20095;-81
2021/11/29 04:17:48;;;;;;;21.45;13.27;;;0.90;99.90;;;;;;5044135;28;20081;-82
2021/11/29 04:20:15;;;;;;;19.05;14.18;;;0.90;99.90;;;;;;5044342;28;20040;-82
2021/11/29 04:22:45;;;;;;;23.45;14.93;;;0.90;99.90;;;;;;5045818;28;20097;-81
2021/11/29 04:25:13;;;;;;;22.50;14.73;;;0.90;99.90;;;;;;5044198;28;20105;-81
2021/11/29 04:27:42;;;;;;;18.85;13.23;;;0.80;99.90;;;;;;5043721;28;20025;-81
2021/11/29 04:30:17;;;;;;;22.92;14.73;;;0.90;99.90;;;;;;5044708;28;20466;-81
2021/11/29 04:32:43;;;;;;;21.98;14.70;;;0.90;99.90;;;;;;5027536;28;20017;-81
2021/11/29 04:35:10;;;;;;;21.83;14.15;;;0.90;99.90;;;;;;5028504;28;20037;-82
2021/11/29 04:37:36;;;;;;;20.95;13.05;;;0.90;99.90;;;;;;5041902;28;20022;-79
2021/11/29 04:40:04;;;;;;;22.75;14.10;;;0.90;99.90;;;;;;5048648;28;20017;-79
2021/11/29 04:42:31;;;;;;;23.20;13.73;;;0.90;99.90;;;;;;5023441;28;20108;-80
2021/11/29 04:44:57;;;;;;;23.08;14.35;;;0.90;99.90;;;;;;5026129;28;20049;-81
2021/11/29 04:47:23;;;;;;;19.40;13.32;;;0.90;99.90;;;;;;5046319;28;20022;-81
2021/11/29 04:49:49;;;;;;;19.77;13.07;;;0.90;99.90;;;;;;5024061;28;20116;-73
2021/11/29 04:52:16;;;;;;;17.50;12.57;;;0.90;99.90;;;;;;5055038;28;20067;-82
2021/11/29 04:54:42;;;;;;;16.73;11.73;;;0.90;99.90;;;;;;5051348;28;20025;-82
2021/11/29 04:57:08;;;;;;;16.48;11.60;;;1.00;99.90;;;;;;5047122;28;20025;-80
2021/11/29 04:59:34;;;;;;;18.63;12.45;;;1.00;99.90;;;;;;5027567;28;20098;-81
2021/11/29 05:02:01;;;;;;;19.92;13.18;;;1.00;99.90;;;;;;5038441;28;20044;-80
2021/11/29 05:04:27;;;;;;;18.63;12.27;;;1.10;99.90;;;;;;5046121;28;20095;-80
2021/11/29 05:06:53;;;;;;;20.77;13.85;;;1.10;99.90;;;;;;5045571;28;20025;-81
2021/11/29 05:09:19;;;;;;;21.90;12.90;;;1.00;99.90;;;;;;5042306;28;20456;-80
2021/11/29 05:11:45;;;;;;;18.05;11.98;;;1.00;99.90;;;;;;5045362;28;20048;-80
2021/11/29 05:14:10;;;;;;;19.52;13.77;;;1.00;99.90;;;;;;5043023;28;20022;-80
2021/11/29 05:16:38;;;;;;;17.55;11.35;;;1.10;99.90;;;;;;5024688;28;20028;-79
2021/11/29 05:19:04;;;;;;;19.85;11.50;;;1.00;99.90;;;;;;5043228;28;20025;-79
2021/11/29 05:21:30;;;;;;;17.63;11.93;;;1.00;99.90;;;;;;5013886;28;20044;-79
2021/11/29 05:23:56;;;;;;;18.15;12.35;;;1.00;99.90;;;;;;5049652;28;20052;-79
2021/11/29 05:26:23;;;;;;;19.90;12.48;;;1.00;99.90;;;;;;5062354;28;20039;-79
2021/11/29 05:28:52;;;;;;;16.42;11.80;;;1.10;99.90;;;;;;5042094;28;20024;-80
2021/11/29 05:31:18;;;;;;;20.02;13.00;;;1.10;99.90;;;;;;5062615;28;20020;-80
2021/11/29 05:33:44;;;;;;;20.33;13.13;;;1.10;99.90;;;;;;5044834;28;20033;-80
2021/11/29 05:36:10;;;;;;;19.85;12.05;;;1.10;99.90;;;;;;5055419;28;20029;-80
2021/11/29 05:38:36;;;;;;;18.63;11.65;;;1.10;99.90;;;;;;5042322;28;20512;-81
2021/11/29 05:41:02;;;;;;;15.45;11.23;;;1.10;99.90;;;;;;5044834;28;20049;-81
2021/11/29 05:43:28;;;;;;;21.00;11.68;;;1.00;99.90;;;;;;5044157;28;20025;-80
2021/11/29 05:45:54;;;;;;;16.13;11.20;;;1.00;99.90;;;;;;5044783;28;20084;-83
2021/11/29 05:48:21;;;;;;;20.48;12.93;;;1.00;99.90;;;;;;5041324;28;20029;-82
2021/11/29 05:50:47;;;;;;;16.00;10.50;;;1.00;99.90;;;;;;5034762;28;20021;-81
2021/11/29 05:53:13;;;;;;;16.13;11.70;;;1.00;99.90;;;;;;5058800;28;20025;-80
2021/11/29 05:55:39;;;;;;;18.77;11.85;;;1.00;99.90;;;;;;5047045;28;20028;-81
2021/11/29 05:58:05;;;;;;;20.13;12.20;;;1.00;99.90;;;;;;5029226;28;20040;-81
2021/11/29 06:00:30;;;;;;;16.48;10.73;;;1.00;99.90;;;;;;5045458;28;20121;-81
2021/11/29 06:02:57;;;;;;;17.88;11.52;;;1.10;99.90;;;;;;5029022;28;20090;-79
2021/11/29 06:05:26;;;;;;;18.27;12.52;;;1.00;99.90;;;;;;5046149;28;20024;-80
2021/11/29 06:07:52;;;;;;;17.67;10.82;;;1.10;99.90;;;;;;5023999;28;20026;-80
2021/11/29 06:10:18;;;;;;;20.35;10.93;;;1.00;99.90;;;;;;5022932;28;20471;-80
2021/11/29 06:12:44;;;;;;;17.17;12.02;;;1.00;99.90;;;;;;5040128;28;20090;-80
2021/11/29 06:15:11;;;;;;;18.15;11.77;;;1.00;99.90;;;;;;5040619;28;20060;-80
2021/11/29 06:17:37;;;;;;;18.88;11.90;;;1.00;99.90;;;;;;5038709;28;20108;-80
2021/11/29 06:20:05;;;;;;;19.10;11.80;;;1.00;99.90;;;;;;5039179;28;20036;-80
2021/11/29 06:22:31;;;;;;;18.90;10.93;;;1.00;99.90;;;;;;5051799;28;20028;-81
2021/11/29 06:24:56;;;;;;;16.38;10.30;;;1.10;99.90;;;;;;5043741;28;20061;-80
2021/11/29 06:27:22;;;;;;;13.57;9.95;;;1.10;99.90;;;;;;5019297;28;20036;-80
2021/11/29 06:29:48;;;;;;;16.40;10.50;;;1.00;99.90;;;;;;5040756;28;20052;-81
2021/11/29 06:32:14;;;;;;;13.48;9.57;;;1.00;99.90;;;;;;5042317;28;20029;-80
2021/11/29 06:34:40;;;;;;;15.07;9.65;;;1.00;99.90;;;;;;5053131;28;20021;-81
2021/11/29 06:37:08;;;;;;;14.07;9.75;;;1.00;99.90;;;;;;5054195;28;20017;-80
2021/11/29 06:39:35;;;;;;;13.75;10.43;;;1.00;99.90;;;;;;5060735;28;20021;-80
2021/11/29 06:42:02;;;;;;;15.43;10.07;;;1.00;99.90;;;;;;5039897;28;20021;-80
2021/11/29 06:44:28;;;;;;;16.88;10.65;;;1.10;99.90;;;;;;5047097;28;20021;-80
2021/11/29 06:46:54;;;;;;;14.02;10.18;;;1.10;99.90;;;;;;5065331;28;20036;-80
2021/11/29 06:49:20;;;;;;;14.90;10.30;;;1.10;99.90;;;;;;5064121;28;20104;-80
2021/11/29 06:51:45;;;;;;;16.13;10.55;;;1.20;99.90;;;;;;5063231;28;20125;-79
2021/11/29 06:54:11;;;;;;;14.13;9.90;;;1.30;99.90;;;;;;5050757;28;20025;-78
2021/11/29 06:56:37;;;;;;;14.95;10.20;;;1.30;99.90;;;;;;5044614;28;20033;-79
2021/11/29 06:59:03;;;;;;;15.18;10.35;;;1.30;99.90;;;;;;5025549;28;20045;-78
2021/11/29 07:01:29;;;;;;;18.25;11.43;;;1.30;99.90;;;;;;5043332;28;20036;-79
2021/11/29 07:03:54;;;;;;;22.83;12.48;;;1.20;99.90;;;;;;5043986;28;20072;-79
2021/11/29 07:06:20;;;;;;;15.70;11.00;;;1.20;99.90;;;;;;5052234;28;20021;-79
2021/11/29 07:08:46;;;;;;;16.35;10.80;;;1.20;99.90;;;;;;5060176;28;20144;-79
2021/11/29 07:11:15;;;;;;;17.65;11.70;;;1.20;99.90;;;;;;5044813;28;20087;-79
2021/11/29 07:13:43;;;;;;;17.77;12.07;;;1.20;99.90;;;;;;5062263;28;20048;-79
2021/11/29 07:16:09;;;;;;;17.83;10.73;;;1.20;99.90;;;;;;5050150;28;20025;-79
2021/11/29 07:18:35;;;;;;;14.90;9.80;;;1.20;99.90;;;;;;5041604;28;20083;-78
2021/11/29 07:21:00;;;;;;;15.07;10.77;;;1.20;99.90;;;;;;5043364;28;20022;-80
2021/11/29 07:23:26;;;;;;;17.80;11.45;;;1.20;99.90;;;;;;5062052;28;20084;-80
2021/11/29 07:25:52;;;;;;;19.15;10.98;;;1.30;99.90;;;;;;5047503;28;20021;-80
2021/11/29 07:28:19;;;;;;;16.20;11.23;;;1.20;99.90;;;;;;5062748;28;20025;-80
2021/11/29 07:30:45;;;;;;;19.45;12.32;;;1.30;99.90;;;;;;5063416;28;20032;-80
2021/11/29 07:33:10;;;;;;;17.38;11.50;;;1.30;99.90;;;;;;5047556;28;20021;-79
2021/11/29 07:35:36;;;;;;;18.95;12.63;;;1.30;99.90;;;;;;5025360;28;20124;-79
2021/11/29 07:38:02;;;;;;;18.40;12.90;;;1.30;99.90;;;;;;5043136;28;20040;-79
2021/11/29 07:40:29;;;;;;;18.60;12.60;;;1.40;99.90;;;;;;5042260;28;20040;-79
2021/11/29 07:43:01;;;;;;;21.08;13.60;;;1.40;99.90;;;;;;5024027;28;20029;-79
2021/11/29 07:45:27;;;;;;;18.83;12.40;;;1.30;99.90;;;;;;5027407;28;20076;-81
2021/11/29 07:47:53;;;;;;;21.95;13.02;;;1.40;99.90;;;;;;5026319;28;20021;-79
2021/11/29 07:50:19;;;;;;;21.83;13.75;;;1.40;99.90;;;;;;5008392;28;20117;-80
2021/11/29 07:52:46;;;;;;;17.65;13.13;;;1.40;99.90;;;;;;5024170;28;20030;-80
2021/11/29 07:55:29;;;;;;;19.92;12.68;;;1.40;99.90;;;;;;5024972;28;20076;-83
2021/11/29 07:57:55;;;;;;;;;;;1.30;99.90;;;;;;5007671;28;20552;-80
2021/11/29 08:00:30;;;;;;;21.92;12.93;;;1.40;99.90;;;;;;5024997;28;19967;-78
2021/11/29 08:02:58;;;;;;;19.08;12.82;;;1.40;99.90;;;;;;5024140;28;20037;-79
2021/11/29 08:05:25;;;;;;;22.05;13.65;;;1.30;99.90;;;;;;5032552;28;20025;-80
2021/11/29 08:07:53;;;;;;;20.15;14.27;;;1.30;99.90;;;;;;5045275;28;20022;-78
2021/11/29 08:10:20;;;;;;;19.35;12.50;;;1.30;99.90;;;;;;5043280;28;20033;-78
2021/11/29 08:12:47;;;;;;;19.70;13.60;;;1.20;99.90;;;;;;5043958;28;20029;-79
2021/11/29 08:15:14;;;;;;;22.67;16.13;;;1.20;99.90;;;;;;5047665;28;20041;-80
2021/11/29 08:17:40;;;;;;;21.80;14.70;;;1.20;99.90;;;;;;5048449;28;20033;-80
2021/11/29 08:20:08;;;;;;;21.85;14.18;;;1.20;99.90;;;;;;5030565;28;20076;-80
2021/11/29 08:22:33;;;;;;;21.50;13.90;;;1.20;99.90;;;;;;5054722;28;20022;-80
2021/11/29 08:24:59;;;;;;;22.92;14.18;;;1.20;99.90;;;;;;5038047;28;20020;-80
2021/11/29 08:27:26;;;;;;;20.25;12.13;;;1.30;99.90;;;;;;5055887;28;20040;-79
2021/11/29 08:29:51;;;;;;;20.50;12.52;;;1.40;99.90;;;;;;5051298;28;20421;-80
2021/11/29 08:32:17;;;;;;;18.33;11.63;;;1.50;99.90;;;;;;5059546;28;20029;-80
2021/11/29 08:34:44;;;;;;;21.13;12.30;;;1.70;99.90;;;;;;5064367;28;20082;-79
2021/11/29 08:37:11;;;;;;;18.90;11.93;;;1.60;99.90;;;;;;5046959;28;20029;-80
2021/11/29 08:39:38;;;;;;;17.30;12.23;;;1.70;99.90;;;;;;5065604;28;20024;-82
2021/11/29 08:42:04;;;;;;;25.05;13.95;;;1.60;99.90;;;;;;5065597;28;20036;-81
2021/11/29 08:44:30;;;;;;;17.30;11.95;;;1.60;99.90;;;;;;5064196;28;20017;-79
2021/11/29 08:46:57;;;;;;;16.10;11.07;;;1.70;99.90;;;;;;5065851;28;20464;-78
2021/11/29 08:49:25;;;;;;;25.42;11.90;;;1.70;99.90;;;;;;5047429;28;20029;-79
2021/11/29 08:51:52;;;;;;;19.65;11.98;;;1.70;99.90;;;;;;5065914;28;20021;-82
2021/11/29 08:54:17;;;;;;;19.98;12.77;;;1.70;99.90;;;;;;5065088;28;20094;-80
2021/11/29 08:56:48;;;;;;;18.48;11.85;;;1.70;99.90;;;;;;5064381;28;20021;-79
2021/11/29 08:59:19;;;;;;;17.85;11.48;;;1.80;99.90;;;;;;5063514;28;20021;-81
2021/11/29 09:01:46;;;;;;;19.00;11.88;;;1.90;99.90;;;;;;5048510;28;20044;-81
2021/11/29 09:04:13;;;;;;;18.83;10.90;;;2.00;99.90;;;;;;5048053;28;20078;-81
2021/11/29 09:06:39;;;;;;;17.33;10.95;;;2.10;99.90;;;;;;5064467;28;20028;-81
2021/11/29 09:09:05;;;;;;;13.05;9.63;;;2.20;99.90;;;;;;5044473;28;20036;-82
2021/11/29 09:11:31;;;;;;;15.10;10.10;;;2.40;99.90;;;;;;5060119;22;20046;-81
2021/11/29 09:13:57;;;;;;;16.83;9.88;;;2.50;99.90;;;;;;5009077;28;20026;-80
2021/11/29 09:16:24;;;;;;;15.80;10.20;;;2.60;99.90;;;;;;5006104;28;20025;-79
2021/11/29 09:18:50;;;;;;;14.50;9.40;;;2.70;99.40;;;;;;5004767;28;20029;-77
2021/11/29 09:21:18;;;;;;;12.25;8.57;;;2.70;98.30;;;;;;5018695;28;20415;-81
2021/11/29 09:23:45;;;;;;;14.25;9.55;;;2.70;97.70;;;;;;5026109;28;20021;-79
2021/11/29 09:26:11;;;;;;;14.48;10.35;;;2.70;97.80;;;;;;5024014;28;20028;-79
2021/11/29 09:28:38;;;;;;;13.52;8.80;;;2.80;97.40;;;;;;5007817;28;20026;-80
2021/11/29 09:31:05;;;;;;;15.85;9.52;;;2.80;98.00;;;;;;5007830;28;20032;-80
2021/11/29 09:33:31;;;;;;;15.80;9.85;;;3.00;97.90;;;;;;5007618;28;20029;-78
2021/11/29 09:35:57;;;;;;;14.73;10.25;;;3.10;96.70;;;;;;5023801;28;20022;-79
2021/11/29 09:38:23;;;;;;;14.90;10.68;;;3.00;96.60;;;;;;5022987;28;20037;-78
2021/11/29 09:40:49;;;;;;;15.48;10.27;;;3.00;97.00;;;;;;5025964;28;20030;-80
2021/11/29 09:43:17;;;;;;;18.73;11.57;;;2.90;96.60;;;;;;5022610;28;20082;-80
2021/11/29 09:45:45;;;;;;;18.30;11.00;;;2.90;97.40;;;;;;5026715;28;20017;-80
2021/11/29 09:48:12;;;;;;;17.42;10.35;;;2.90;97.40;;;;;;5026902;28;20022;-80
2021/11/29 09:50:43;;;;;;;18.35;11.52;;;2.90;97.40;;;;;;5027762;28;20048;-81
2021/11/29 09:53:11;;;;;;;18.38;11.57;;;3.00;96.40;;;;;;5045186;28;20162;-81
2021/11/29 09:55:37;;;;;;;17.55;10.32;;;2.90;96.50;;;;;;5046873;28;20025;-81
2021/11/29 09:58:04;;;;;;;16.20;11.40;;;2.80;96.40;;;;;;5028718;28;20040;-81
2021/11/29 10:00:42;;;;;;;17.80;11.68;;;2.70;96.90;;;;;;5029601;28;20033;-81
2021/11/29 10:03:08;;;;;;;15.85;11.43;;;2.60;96.50;;;;;;4989208;28;20495;-79
2021/11/29 10:05:36;;;;;;;17.95;11.52;;;2.50;97.50;;;;;;5000202;28;20023;-81
2021/11/29 10:08:20;;;;;;;17.83;11.82;;;2.40;97.60;;;;;;5004122;28;20026;-79
2021/11/29 10:10:52;;;;;;;17.00;11.30;;;2.50;97.80;;;;;;5009730;28;20437;-79
2021/11/29 10:13:18;;;;;;;16.70;10.88;;;2.70;97.40;;;;;;4991130;28;20030;-80
2021/11/29 10:15:45;;;;;;;17.75;10.95;;;2.80;97.00;;;;;;4986322;28;20452;-79
2021/11/29 10:18:16;;;;;;;17.25;10.95;;;3.00;96.60;;;;;;4987833;28;20030;-80
2021/11/29 10:21:08;;;;;;;16.70;11.18;;;3.20;95.70;;;;;;5003476;28;20089;-80
2021/11/29 10:23:40;;;;;;;17.33;10.45;;;3.30;95.70;;;;;;5037433;28;20025;-80
2021/11/29 10:26:18;;;;;;;;;;;3.30;94.80;;;;;;5030526;28;20061;-79
2021/11/29 10:28:46;;;;;;;15.73;10.63;;;3.30;94.90;;;;;;5047895;28;19992;-80
2021/11/29 10:31:25;;;;;;;15.63;10.52;;;3.20;95.70;;;;;;5028236;28;20022;-80
2021/11/29 10:34:06;;;;;;;15.65;10.35;;;3.20;96.10;;;;;;5043811;28;20045;-81
2021/11/29 10:36:39;;;;;;;17.95;11.25;;;3.20;95.80;;;;;;5007255;28;20105;-79
2021/11/29 10:39:11;;;;;;;16.95;11.13;;;3.10;95.30;;;;;;5003069;28;20118;-79
2021/11/29 10:41:41;;;;;;;14.80;10.50;;;3.00;95.30;;;;;;4984100;28;20089;-81
2021/11/29 10:44:11;;;;;;;19.27;10.75;;;2.90;95.90;;;;;;4998315;28;20022;-81
2021/11/29 10:46:42;;;;;;;14.45;10.02;;;2.80;95.70;;;;;;5005766;28;20030;-81
2021/11/29 10:49:13;;;;;;;17.77;10.05;;;2.80;95.80;;;;;;5023718;28;20070;-81
2021/11/29 10:51:42;;;;;;;15.88;10.15;;;2.80;96.10;;;;;;5000573;28;20032;-80
2021/11/29 10:54:19;;;;;;;16.67;9.82;;;2.80;95.30;;;;;;5042140;28;20030;-80
2021/11/29 10:56:46;;;;;;;15.52;10.10;;;2.80;95.50;;;;;;5023246;28;20031;-82
2021/11/29 10:59:18;;;;;;;15.10;9.68;;;2.80;95.80;;;;;;5042417;28;20089;-81
2021/11/29 11:01:46;;;;;;;14.45;9.55;;;2.70;96.10;;;;;;5040669;28;20113;-80
2021/11/29 11:04:27;;;;;;;13.35;9.40;;;2.80;96.30;;;;;;5021263;28;20037;-80
2021/11/29 11:06:56;;;;;;;16.02;9.95;;;3.00;96.90;;;;;;5021173;28;20116;-81
2021/11/29 11:09:24;;;;;;;15.60;10.25;;;3.20;96.90;;;;;;5003592;28;20033;-81
2021/11/29 11:11:55;;;;;;;16.13;9.73;;;3.40;94.80;;;;;;5011632;28;20065;-81
2021/11/29 11:14:28;;;;;;;15.35;9.52;;;3.50;94.50;;;;;;4996348;28;20083;-81
2021/11/29 11:17:13;;;;;;;18.13;9.48;;;3.40;94.30;;;;;;5006049;28;20052;-80
2021/11/29 11:19:57;;;;;;;15.77;10.20;;;3.30;94.50;;;;;;5011376;28;20014;-81
2021/11/29 11:22:29;;;;;;;15.90;10.27;;;3.30;95.20;;;;;;4999160;28;20270;-81
2021/11/29 11:25:10;;;;;;;18.33;11.52;;;3.20;94.80;;;;;;4993509;28;20026;-81
2021/11/29 11:27:40;;;;;;;16.38;10.55;;;3.20;95.00;;;;;;5007285;28;20510;-80
2021/11/29 11:30:07;;;;;;;17.90;11.80;;;3.20;94.40;;;;;;4989489;28;20129;-80
2021/11/29 11:32:39;;;;;;;21.02;13.07;;;3.20;95.10;;;;;;5003728;28;20148;-80
2021/11/29 11:35:14;;;;;;;22.02;13.00;;;3.20;95.00;;;;;;5020327;28;20090;-80
2021/11/29 11:37:45;;;;;;;26.25;15.50;;;3.20;95.60;;;;;;5020554;28;20038;-80
2021/11/29 11:40:18;;;;;;;24.90;13.25;;;3.30;95.30;;;;;;5000123;28;20029;-79
2021/11/29 11:42:45;;;;;;;19.80;12.95;;;3.40;95.10;;;;;;5001582;28;20029;-80
2021/11/29 11:45:14;;;;;;;18.73;11.48;;;3.40;95.50;;;;;;5009077;28;20033;-80
2021/11/29 11:47:42;;;;;;;16.88;11.02;;;3.40;95.10;;;;;;4998480;28;20010;-81
2021/11/29 11:50:10;;;;;;;15.60;11.15;;;3.30;94.80;;;;;;5016422;28;20042;-80
2021/11/29 11:52:36;;;;;;;17.52;11.77;;;3.20;95.20;;;;;;5030945;28;20032;-80
2021/11/29 11:55:04;;;;;;;17.45;10.48;;;3.00;95.50;;;;;;5022795;28;20021;-80
2021/11/29 11:57:31;;;;;;;17.45;11.63;;;2.90;96.20;;;;;;5016280;28;20380;-80
2021/11/29 12:00:30;;;;;;;16.40;10.57;;;2.90;97.10;;;;;;4983856;28;20034;-81
2021/11/29 12:03:12;;;;;;;11.55;7.07;;;2.60;97.80;;;;;;5005114;28;20046;-80
2021/11/29 12:05:53;;;;;;;8.40;5.72;;;2.30;99.40;;;;;;5008090;28;20093;-81
2021/11/29 12:08:37;;;;;;;9.05;6.00;;;2.10;99.90;;;;;;5004034;28;20375;-81
2021/11/29 12:11:08;;;;;;;10.68;5.72;;;1.90;99.90;;;;;;5014868;28;20045;-81
2021/11/29 12:13:42;;;;;;;8.23;5.22;;;1.80;99.90;;;;;;5022704;28;20105;-80
2021/11/29 12:16:10;;;;;;;7.70;5.40;;;1.70;99.90;;;;;;4986690;28;20471;-79
2021/11/29 12:18:41;;;;;;;11.48;6.88;;;1.60;99.90;;;;;;5003989;28;20054;-80
2021/11/29 12:21:16;;;;;;;9.77;5.90;;;1.70;99.90;;;;;;4998476;28;20025;-80
2021/11/29 12:23:45;;;;;;;10.77;6.15;;;1.70;99.90;;;;;;5045050;28;20116;-79
2021/11/29 12:26:11;;;;;;;9.43;6.22;;;1.80;99.90;;;;;;5028067;28;20025;-77
2021/11/29 12:28:41;;;;;;;11.15;6.72;;;1.90;99.90;;;;;;5046155;28;20025;-80
2021/11/29 12:31:39;;;;;;;12.38;6.60;;;2.00;99.90;;;;;;5022698;28;20086;-81
2021/11/29 12:34:09;;;;;;;13.68;6.97;;;2.00;99.90;;;;;;4988827;28;20030;-79
2021/11/29 12:36:59;;;;;;;15.35;8.50;;;2.00;99.90;;;;;;4987603;28;20029;-80
2021/11/29 12:39:43;;;;;;;16.42;8.85;;;1.90;99.90;;;;;;4996997;28;20034;-80
2021/11/29 12:42:27;;;;;;;17.20;8.98;;;1.80;99.90;;;;;;4989917;28;20030;-80
2021/11/29 12:45:01;;;;;;;15.93;8.35;;;1.90;99.90;;;;;;5005987;28;20084;-79